Time;durP1;ratioP1;P1;durP2;ratioP2;P2;SDS_P1;SDS_P2;PMS_P1;PMS_P2;Temp;Humidity;BMP_temperature;BMP_pressure;BME280_temperature;BME280_humidity;BME280_pressure;Samples;Min_cycle;Max_cycle;Signal;HPM_P1;HPM_P2
2022/12/20 00:01:10;;;;;;;10.40;5.20;;;8.50;99.90;;;;;;5059822;28;20491;-62
2022/12/20 00:03:37;;;;;;;12.20;5.38;;;8.50;99.90;;;;;;5056618;28;20032;-61
2022/12/20 00:06:03;;;;;;;9.50;4.55;;;8.50;99.90;;;;;;5061223;28;20068;-61
2022/12/20 00:08:29;;;;;;;7.50;4.38;;;8.50;99.90;;;;;;5052260;28;20059;-61
2022/12/20 00:10:54;;;;;;;6.10;4.38;;;8.50;99.90;;;;;;5065337;28;20453;-60
2022/12/20 00:13:20;;;;;;;6.70;4.13;;;8.50;99.90;;;;;;5058001;28;20054;-62
2022/12/20 00:15:45;;;;;;;6.38;4.40;;;8.50;99.90;;;;;;5064877;28;20039;-62
2022/12/20 00:18:11;;;;;;;8.82;4.22;;;8.50;99.90;;;;;;5062656;28;20532;-60
2022/12/20 00:20:36;;;;;;;6.57;4.00;;;8.50;99.90;;;;;;5059248;28;20443;-60
2022/12/20 00:23:02;;;;;;;6.25;3.88;;;8.50;99.90;;;;;;5057891;28;20130;-61
2022/12/20 00:25:28;;;;;;;5.97;3.85;;;8.50;99.90;;;;;;5061519;28;20127;-63
2022/12/20 00:27:54;;;;;;;8.80;3.58;;;8.60;99.90;;;;;;5064870;28;20135;-61
2022/12/20 00:30:19;;;;;;;5.07;3.22;;;8.60;99.90;;;;;;5057098;28;20036;-61
2022/12/20 00:32:45;;;;;;;6.85;3.95;;;8.60;99.90;;;;;;5061712;28;20047;-61
2022/12/20 00:35:11;;;;;;;8.32;3.75;;;8.70;99.90;;;;;;5055080;28;20032;-60
2022/12/20 00:37:37;;;;;;;8.85;3.40;;;8.60;99.90;;;;;;5064747;28;20039;-60
2022/12/20 00:40:04;;;;;;;6.38;3.10;;;8.70;99.90;;;;;;5057680;28;20029;-61
2022/12/20 00:42:30;;;;;;;6.65;3.35;;;8.70;99.90;;;;;;5061114;28;20051;-60
2022/12/20 00:44:56;;;;;;;4.25;2.85;;;8.70;99.90;;;;;;5063649;28;20036;-61
2022/12/20 00:47:21;;;;;;;4.82;2.88;;;8.80;99.90;;;;;;5062363;28;20119;-60
2022/12/20 00:49:47;;;;;;;8.57;3.13;;;8.80;99.90;;;;;;5058868;28;20044;-62
2022/12/20 00:52:12;;;;;;;6.28;2.92;;;8.90;99.90;;;;;;5057551;28;20041;-62
2022/12/20 00:54:38;;;;;;;7.82;3.25;;;8.90;99.90;;;;;;5062086;28;20437;-62
2022/12/20 00:57:04;;;;;;;4.75;2.72;;;8.90;99.90;;;;;;5058012;28;20446;-60
2022/12/20 00:59:29;;;;;;;5.35;2.75;;;8.90;99.90;;;;;;5062485;28;20036;-60
2022/12/20 01:01:55;;;;;;;5.88;2.70;;;8.80;99.90;;;;;;5053749;28;20041;-60
2022/12/20 01:04:20;;;;;;;4.43;2.88;;;8.90;99.90;;;;;;5063197;28;20036;-61
2022/12/20 01:06:46;;;;;;;5.85;2.33;;;8.90;99.90;;;;;;5061976;28;20043;-62
2022/12/20 01:09:11;;;;;;;4.40;2.28;;;8.90;99.90;;;;;;5061339;28;20032;-60
2022/12/20 01:11:38;;;;;;;4.75;2.28;;;9.00;99.90;;;;;;5059863;28;20083;-61
2022/12/20 01:14:07;;;;;;;4.40;2.38;;;9.00;99.90;;;;;;5058101;28;20040;-61
2022/12/20 01:16:42;;;;;;;4.68;2.20;;;9.20;99.90;;;;;;5062195;28;20083;-60
2022/12/20 01:19:09;;;;;;;5.53;2.40;;;9.20;99.90;;;;;;5060743;28;20904;-61
2022/12/20 01:21:35;;;;;;;6.63;2.40;;;9.20;99.90;;;;;;5059028;28;20617;-61
2022/12/20 01:24:01;;;;;;;6.10;2.20;;;9.20;99.90;;;;;;5061217;28;20131;-60
2022/12/20 01:26:28;;;;;;;3.83;2.05;;;9.30;99.90;;;;;;5061934;28;20056;-61
2022/12/20 01:28:56;;;;;;;3.92;2.00;;;9.30;99.90;;;;;;5067433;28;20033;-60
2022/12/20 01:31:22;;;;;;;3.13;2.05;;;9.30;99.90;;;;;;5060107;28;20603;-60
2022/12/20 01:33:49;;;;;;;3.88;1.90;;;9.40;99.90;;;;;;5064459;28;20388;-60
2022/12/20 01:36:24;;;;;;;4.93;2.00;;;9.40;99.90;;;;;;5070225;28;20123;-60
2022/12/20 01:38:50;;;;;;;7.32;2.10;;;9.40;99.90;;;;;;5062426;28;20032;-60
2022/12/20 01:41:17;;;;;;;4.03;2.40;;;9.40;99.90;;;;;;5058120;28;20437;-61
2022/12/20 01:43:50;;;;;;;3.70;1.80;;;9.40;99.90;;;;;;5063460;28;20037;-60
2022/12/20 01:46:16;;;;;;;3.70;1.55;;;9.30;99.90;;;;;;5062219;28;20063;-60
2022/12/20 01:49:09;;;;;;;4.32;2.40;;;9.30;99.90;;;;;;5065036;28;20029;-61
2022/12/20 01:51:38;;;;;;;2.90;1.25;;;9.40;99.90;;;;;;5056030;28;20025;-60
2022/12/20 01:54:18;;;;;;;3.42;1.90;;;9.40;99.90;;;;;;5061268;28;20464;-60
2022/12/20 01:56:52;;;;;;;2.92;1.73;;;9.40;99.90;;;;;;5061073;28;20029;-61
2022/12/20 01:59:18;;;;;;;4.85;2.33;;;9.40;99.90;;;;;;5065299;28;20111;-60
2022/12/20 02:01:45;;;;;;;6.63;1.95;;;9.40;99.90;;;;;;5066116;28;20040;-60
2022/12/20 02:04:10;;;;;;;3.45;2.08;;;9.50;99.90;;;;;;5064968;28;20062;-60
2022/12/20 02:06:36;;;;;;;3.55;1.90;;;9.50;99.90;;;;;;5066018;28;20040;-61
2022/12/20 02:09:04;;;;;;;3.65;1.88;;;9.50;99.90;;;;;;5059069;28;20044;-62
2022/12/20 02:12:01;;;;;;;6.30;2.17;;;9.50;99.90;;;;;;5065424;28;20032;-60
2022/12/20 02:14:27;;;;;;;4.93;1.90;;;9.50;99.90;;;;;;5062983;28;20032;-60
2022/12/20 02:17:06;;;;;;;5.07;2.00;;;9.50;99.90;;;;;;5064210;28;20029;-60
2022/12/20 02:19:50;;;;;;;7.82;2.17;;;9.60;99.90;;;;;;5062403;28;20638;-60
2022/12/20 02:22:33;;;;;;;2.85;1.95;;;9.50;99.90;;;;;;5061785;28;20078;-61
2022/12/20 02:25:17;;;;;;;2.72;2.00;;;9.60;99.90;;;;;;5062124;28;20051;-62
2022/12/20 02:27:48;;;;;;;5.07;1.85;;;9.60;99.90;;;;;;5061397;28;20105;-61
2022/12/20 02:30:20;;;;;;;3.75;1.70;;;9.60;99.90;;;;;;5061665;28;20431;-61
2022/12/20 02:32:58;;;;;;;4.25;1.90;;;9.60;99.90;;;;;;5063551;28;20055;-60
2022/12/20 02:35:29;;;;;;;4.97;2.28;;;9.60;99.90;;;;;;5061162;28;20036;-60
2022/12/20 02:37:58;;;;;;;5.32;2.60;;;9.60;99.90;;;;;;5065557;28;20572;-61
2022/12/20 02:40:44;;;;;;;5.97;2.47;;;9.60;99.90;;;;;;5060766;28;20028;-60
2022/12/20 02:45:14;;;;;;;5.78;2.28;;;9.60;99.90;;;;;;5063450;28;20472;-61
2022/12/20 02:45:59;;;;;;;6.85;2.15;;;9.70;99.90;;;;;;5059293;28;20382;-60
2022/12/20 02:48:27;;;;;;;4.63;2.40;;;9.70;99.90;;;;;;5059242;28;20229;-61
2022/12/20 02:50:56;;;;;;;5.00;2.47;;;9.60;99.90;;;;;;5056095;28;20047;-61
2022/12/20 02:53:22;;;;;;;5.45;2.38;;;9.70;99.90;;;;;;5060879;28;20052;-61
2022/12/20 02:56:32;;;;;;;5.35;2.40;;;9.70;99.90;;;;;;5060264;28;20110;-61
2022/12/20 02:59:17;;;;;;;4.72;2.58;;;9.60;99.90;;;;;;5033758;28;20048;-61
2022/12/20 03:01:52;;;;;;;4.90;2.72;;;9.50;99.90;;;;;;5048718;28;20404;-62
2022/12/20 03:04:23;;;;;;;3.92;2.50;;;9.60;99.90;;;;;;5060432;28;20115;-61
2022/12/20 03:06:57;;;;;;;4.32;2.60;;;9.60;99.90;;;;;;5062944;28;20075;-62
2022/12/20 03:09:23;;;;;;;5.95;2.65;;;9.60;99.90;;;;;;5064456;28;20036;-62
2022/12/20 03:11:49;;;;;;;5.70;2.90;;;9.50;99.90;;;;;;5062873;28;20094;-61
2022/12/20 03:14:15;;;;;;;5.35;2.67;;;9.60;99.90;;;;;;5062232;28;20085;-62
2022/12/20 03:16:40;;;;;;;3.67;2.78;;;9.60;99.90;;;;;;5058477;28;20400;-62
2022/12/20 03:19:06;;;;;;;4.47;3.10;;;9.50;99.90;;;;;;5058321;28;20229;-61
2022/12/20 03:21:31;;;;;;;5.18;2.90;;;9.60;99.90;;;;;;5060106;28;20498;-62
2022/12/20 03:23:57;;;;;;;5.20;2.85;;;9.60;99.90;;;;;;5066625;28;20037;-61
2022/12/20 03:26:23;;;;;;;6.80;2.90;;;9.60;99.90;;;;;;5063402;28;20033;-61
2022/12/20 03:28:48;;;;;;;5.70;2.90;;;9.50;99.90;;;;;;5062751;28;20040;-61
2022/12/20 03:31:14;;;;;;;5.60;2.97;;;9.50;99.90;;;;;;5059849;28;20060;-61
2022/12/20 03:33:39;;;;;;;5.70;3.20;;;9.40;99.90;;;;;;5064978;28;20024;-60
2022/12/20 03:36:05;;;;;;;4.65;2.80;;;9.50;99.90;;;;;;5066057;28;20039;-60
2022/12/20 03:38:30;;;;;;;5.95;3.20;;;9.40;99.90;;;;;;5066352;28;20025;-62
2022/12/20 03:40:56;;;;;;;10.68;3.75;;;9.40;99.90;;;;;;5061570;28;20186;-61
2022/12/20 03:43:21;;;;;;;9.32;4.57;;;9.40;99.90;;;;;;5060617;28;20036;-61
2022/12/20 03:45:47;;;;;;;11.63;4.75;;;9.30;99.90;;;;;;5058403;28;20035;-63
2022/12/20 03:48:13;;;;;;;8.77;5.90;;;9.30;99.90;;;;;;5064110;28;20047;-61
2022/12/20 03:50:38;;;;;;;10.00;6.50;;;9.20;99.90;;;;;;5058234;28;20095;-60
2022/12/20 03:53:04;;;;;;;13.13;6.65;;;9.20;99.90;;;;;;5060611;28;20028;-61
2022/12/20 03:55:29;;;;;;;14.57;6.95;;;9.30;99.90;;;;;;5061763;28;20025;-62
2022/12/20 03:57:55;;;;;;;14.50;7.60;;;9.20;99.90;;;;;;5064443;28;20035;-61
2022/12/20 04:00:21;;;;;;;10.52;6.72;;;9.30;99.90;;;;;;5056525;28;20043;-61
2022/12/20 04:02:46;;;;;;;11.98;7.10;;;9.30;99.90;;;;;;5061480;28;20039;-61
2022/12/20 04:05:12;;;;;;;12.77;6.32;;;9.20;99.90;;;;;;5065087;28;20419;-61
2022/12/20 04:07:37;;;;;;;10.55;6.32;;;9.20;99.90;;;;;;5062364;28;20035;-60
2022/12/20 04:10:04;;;;;;;11.48;6.88;;;9.20;99.90;;;;;;5054717;28;20147;-61
2022/12/20 04:12:29;;;;;;;10.70;6.10;;;9.20;99.90;;;;;;5064683;28;20476;-61
2022/12/20 04:14:55;;;;;;;15.27;6.60;;;9.30;99.90;;;;;;5065079;28;20028;-61
2022/12/20 04:17:20;;;;;;;12.80;6.22;;;9.30;99.90;;;;;;5059395;28;20594;-62
2022/12/20 04:19:46;;;;;;;11.80;7.05;;;9.20;99.90;;;;;;5069841;28;20470;-61
2022/12/20 04:22:11;;;;;;;12.90;6.28;;;9.20;99.90;;;;;;5062476;28;20407;-61
2022/12/20 04:24:37;;;;;;;13.13;6.20;;;9.20;99.90;;;;;;5060613;28;20035;-62
2022/12/20 04:27:02;;;;;;;14.55;6.45;;;9.20;99.90;;;;;;5053021;28;20048;-61
2022/12/20 04:29:28;;;;;;;8.82;6.20;;;9.20;99.90;;;;;;5057047;28;20036;-63
2022/12/20 04:31:54;;;;;;;9.70;6.20;;;9.20;99.90;;;;;;5067137;28;20040;-62
2022/12/20 04:34:19;;;;;;;10.65;6.05;;;9.20;99.90;;;;;;5062040;28;20059;-63
2022/12/20 04:36:45;;;;;;;12.00;7.22;;;9.30;99.90;;;;;;5064221;28;20087;-61
2022/12/20 04:39:10;;;;;;;11.93;7.35;;;9.20;99.90;;;;;;5059129;28;20033;-62
2022/12/20 04:41:36;;;;;;;14.38;8.30;;;9.30;99.90;;;;;;5058321;28;20044;-62
2022/12/20 04:44:02;;;;;;;11.65;8.50;;;9.20;99.90;;;;;;5062735;28;20036;-63
2022/12/20 04:46:27;;;;;;;14.95;8.25;;;9.30;99.90;;;;;;5062100;28;20081;-61
2022/12/20 04:48:53;;;;;;;12.93;8.02;;;9.30;99.90;;;;;;5065236;28;20497;-61
2022/12/20 04:51:19;;;;;;;13.55;7.55;;;9.20;99.90;;;;;;5059019;28;20025;-61
2022/12/20 04:53:47;;;;;;;11.60;8.55;;;9.20;99.90;;;;;;5053906;28;20025;-62
2022/12/20 04:56:19;;;;;;;10.50;8.48;;;9.20;99.90;;;;;;5054705;28;20039;-62
2022/12/20 04:58:46;;;;;;;10.90;7.82;;;9.20;99.90;;;;;;5060155;28;20512;-61
2022/12/20 05:01:12;;;;;;;11.45;7.75;;;9.20;99.90;;;;;;5064264;28;20116;-61
2022/12/20 05:03:38;;;;;;;14.25;8.30;;;9.20;99.90;;;;;;5067295;28;20454;-61
2022/12/20 05:06:05;;;;;;;11.52;7.60;;;9.20;99.90;;;;;;5066701;28;20037;-61
2022/12/20 05:08:30;;;;;;;12.27;7.78;;;9.20;99.90;;;;;;5066209;28;20132;-62
2022/12/20 05:10:56;;;;;;;12.80;7.72;;;9.10;99.90;;;;;;5062169;28;20116;-61
2022/12/20 05:13:21;;;;;;;12.18;7.40;;;9.10;99.90;;;;;;5067257;28;20105;-62
2022/12/20 05:15:51;;;;;;;12.20;7.80;;;9.10;99.90;;;;;;5064400;28;20039;-60
2022/12/20 05:18:17;;;;;;;12.95;7.93;;;9.10;99.90;;;;;;5063787;28;20118;-61
2022/12/20 05:20:42;;;;;;;10.73;7.70;;;9.10;99.90;;;;;;5068470;28;20039;-59
2022/12/20 05:28:38;;;;;;;13.52;7.70;;;9.10;99.90;;;;;;5064245;28;20632;-60
2022/12/20 05:31:04;;;;;;;13.98;7.25;;;9.10;99.90;;;;;;5067254;28;20025;-61
2022/12/20 05:33:30;;;;;;;12.88;7.05;;;9.10;99.90;;;;;;5063882;28;20090;-60
2022/12/20 05:35:55;;;;;;;12.27;6.72;;;9.10;99.90;;;;;;5062239;28;20036;-60
2022/12/20 05:38:22;;;;;;;15.10;7.78;;;9.00;99.90;;;;;;5067432;28;20036;-59
2022/12/20 05:40:48;;;;;;;10.88;7.32;;;9.10;99.90;;;;;;5060986;28;20063;-61
2022/12/20 05:43:15;;;;;;;13.57;7.85;;;9.00;99.90;;;;;;5062309;28;20583;-60
2022/12/20 05:45:51;;;;;;;10.77;7.30;;;9.00;99.90;;;;;;5061864;28;20574;-60
2022/12/20 05:48:17;;;;;;;11.98;7.78;;;9.00;99.90;;;;;;5066409;28;20036;-60
2022/12/20 05:50:44;;;;;;;9.95;7.35;;;9.00;99.90;;;;;;5063343;28;20041;-60
2022/12/20 05:53:14;;;;;;;10.50;7.78;;;9.10;99.90;;;;;;5066527;28;20067;-60
2022/12/20 05:55:47;;;;;;;11.45;7.70;;;9.10;99.90;;;;;;5059643;28;20119;-60
2022/12/20 05:58:13;;;;;;;12.60;7.70;;;9.00;99.90;;;;;;5063108;28;20377;-60
2022/12/20 06:00:42;;;;;;;12.20;7.53;;;9.10;99.90;;;;;;5063334;28;20100;-60
2022/12/20 06:03:08;;;;;;;13.57;7.80;;;9.10;99.90;;;;;;5065408;28;20664;-61
2022/12/20 06:05:35;;;;;;;12.13;7.80;;;9.00;99.90;;;;;;5067519;28;20488;-61
2022/12/20 06:08:02;;;;;;;12.13;7.90;;;9.10;99.90;;;;;;5061269;28;20036;-60
2022/12/20 06:10:28;;;;;;;13.40;8.18;;;9.10;99.90;;;;;;5063804;28;20028;-60
2022/12/20 06:12:53;;;;;;;14.07;8.00;;;9.10;99.90;;;;;;5061430;28;20033;-60
2022/12/20 06:15:19;;;;;;;15.52;8.50;;;9.20;99.90;;;;;;5066985;28;20033;-60
2022/12/20 06:17:45;;;;;;;15.38;7.88;;;9.20;99.90;;;;;;5058801;28;20037;-60
2022/12/20 06:20:11;;;;;;;12.95;7.95;;;9.20;99.90;;;;;;5061243;28;20484;-60
2022/12/20 06:22:36;;;;;;;15.40;8.70;;;9.20;99.90;;;;;;5067587;28;20044;-62
2022/12/20 06:25:02;;;;;;;12.73;8.48;;;9.20;99.90;;;;;;5067267;28;20459;-61
2022/12/20 06:27:28;;;;;;;15.52;8.27;;;9.20;99.90;;;;;;5066016;28;20040;-61
2022/12/20 06:29:53;;;;;;;18.17;7.50;;;9.30;99.90;;;;;;5064362;28;20045;-61
2022/12/20 06:32:19;;;;;;;9.25;8.02;;;9.30;99.90;;;;;;5062850;28;20048;-62
2022/12/20 06:34:45;;;;;;;17.60;7.82;;;9.30;99.90;;;;;;5066100;28;20049;-61
2022/12/20 06:37:11;;;;;;;11.57;6.78;;;9.30;99.90;;;;;;5071875;28;20036;-61
2022/12/20 06:39:37;;;;;;;13.55;7.00;;;9.30;99.90;;;;;;5054272;28;20040;-62
2022/12/20 06:42:03;;;;;;;11.00;7.15;;;9.30;99.90;;;;;;5067938;28;20526;-61
2022/12/20 06:44:28;;;;;;;12.05;7.70;;;9.30;99.90;;;;;;5067145;28;20039;-62
2022/12/20 06:46:54;;;;;;;13.18;6.85;;;9.30;99.90;;;;;;5060455;28;20024;-63
2022/12/20 06:49:21;;;;;;;12.25;6.72;;;9.30;99.90;;;;;;5064290;28;20487;-62
2022/12/20 06:51:47;;;;;;;13.30;7.30;;;9.00;99.90;;;;;;5068984;28;20715;-61
2022/12/20 06:54:13;;;;;;;9.75;7.13;;;9.30;99.90;;;;;;5065064;28;20116;-63
2022/12/20 06:56:38;;;;;;;12.57;7.30;;;9.40;99.90;;;;;;5065494;28;20119;-62
2022/12/20 06:59:04;;;;;;;9.93;6.60;;;9.30;99.90;;;;;;5069864;28;20090;-61
2022/12/20 07:01:30;;;;;;;11.60;6.88;;;9.30;99.90;;;;;;5060235;28;20116;-60
2022/12/20 07:03:56;;;;;;;10.65;6.55;;;9.30;99.90;;;;;;5062923;28;20033;-61
2022/12/20 07:06:21;;;;;;;11.60;6.57;;;9.40;99.90;;;;;;5063997;28;20040;-61
2022/12/20 07:08:47;;;;;;;11.32;5.93;;;9.30;99.90;;;;;;5060662;28;20060;-63
2022/12/20 07:11:13;;;;;;;12.10;5.90;;;9.30;99.90;;;;;;5062589;28;20082;-62
2022/12/20 07:13:38;;;;;;;14.50;6.35;;;9.30;99.90;;;;;;5062954;28;20033;-62
2022/12/20 07:16:04;;;;;;;11.85;6.30;;;9.30;99.90;;;;;;5058126;28;20033;-62
2022/12/20 07:18:30;;;;;;;11.35;6.88;;;9.40;99.90;;;;;;5055088;28;20115;-62
2022/12/20 07:21:04;;;;;;;11.02;5.85;;;9.40;99.90;;;;;;5056455;28;20033;-62
2022/12/20 07:23:30;;;;;;;14.18;6.38;;;9.40;99.90;;;;;;5065200;28;20036;-63
2022/12/20 07:25:57;;;;;;;9.07;6.07;;;9.40;99.90;;;;;;5064292;28;20025;-62
2022/12/20 07:28:25;;;;;;;9.05;5.85;;;9.40;99.90;;;;;;5062449;28;20175;-62
2022/12/20 07:30:50;;;;;;;11.70;6.05;;;9.40;99.90;;;;;;5055701;28;20033;-62
2022/12/20 07:33:16;;;;;;;10.43;5.47;;;9.50;99.90;;;;;;5052994;28;20033;-62
2022/12/20 07:35:44;;;;;;;10.27;5.40;;;9.50;99.90;;;;;;5055543;28;20523;-63
2022/12/20 07:38:10;;;;;;;9.15;5.40;;;9.40;99.90;;;;;;5061520;28;20479;-61
2022/12/20 07:40:39;;;;;;;9.85;5.68;;;9.50;99.90;;;;;;5061810;28;20730;-63
2022/12/20 07:43:05;;;;;;;12.77;5.53;;;9.50;99.90;;;;;;5062705;28;20506;-61
2022/12/20 07:45:30;;;;;;;8.43;5.65;;;9.50;99.90;;;;;;5061215;28;20037;-62
2022/12/20 07:47:56;;;;;;;8.23;5.30;;;9.50;99.90;;;;;;5058549;28;20033;-60
2022/12/20 07:50:23;;;;;;;6.50;4.72;;;9.50;99.90;;;;;;5059245;28;20438;-61
2022/12/20 07:52:49;;;;;;;11.85;5.20;;;9.50;99.90;;;;;;5060108;28;20043;-61
2022/12/20 07:55:15;;;;;;;9.77;4.88;;;9.50;99.90;;;;;;5051866;28;20037;-60
2022/12/20 07:57:51;;;;;;;9.38;4.72;;;9.50;99.90;;;;;;5055403;28;20126;-60
2022/12/20 08:00:17;;;;;;;11.82;4.93;;;9.40;99.90;;;;;;5059753;28;20571;-60
2022/12/20 08:03:04;;;;;;;9.40;4.72;;;9.50;99.90;;;;;;5057179;28;20052;-61
2022/12/20 08:05:30;;;;;;;7.68;4.70;;;9.60;99.90;;;;;;5058305;28;20033;-61
2022/12/20 08:07:57;;;;;;;11.65;4.60;;;9.60;99.90;;;;;;5062782;28;20147;-61
2022/12/20 08:10:23;;;;;;;6.78;4.43;;;9.60;99.90;;;;;;5067796;28;20476;-61
2022/12/20 08:12:49;;;;;;;8.55;4.47;;;9.60;99.90;;;;;;5063067;28;20036;-61
2022/12/20 08:15:15;;;;;;;8.13;4.65;;;9.70;99.90;;;;;;5057802;28;20040;-61
2022/12/20 08:17:41;;;;;;;8.20;4.30;;;9.60;99.90;;;;;;5071182;28;20474;-61
2022/12/20 08:20:07;;;;;;;11.25;4.60;;;9.70;99.90;;;;;;5072579;28;20040;-62
2022/12/20 08:22:34;;;;;;;6.72;4.05;;;9.70;99.90;;;;;;5070250;28;20037;-63
2022/12/20 08:24:59;;;;;;;8.35;4.13;;;9.70;99.90;;;;;;5062872;28;20683;-63
2022/12/20 08:27:25;;;;;;;7.05;4.22;;;9.70;99.90;;;;;;5057599;28;20123;-63
2022/12/20 08:29:50;;;;;;;9.10;4.75;;;9.70;99.90;;;;;;5058754;28;20036;-62
2022/12/20 08:32:16;;;;;;;9.38;4.00;;;9.70;99.90;;;;;;5060629;28;20107;-62
2022/12/20 08:34:42;;;;;;;6.00;3.75;;;9.70;99.90;;;;;;5058288;28;20064;-61
2022/12/20 08:37:07;;;;;;;7.50;3.80;;;9.80;99.90;;;;;;5060864;28;20516;-61
2022/12/20 08:39:33;;;;;;;6.55;3.85;;;9.80;99.90;;;;;;5060909;28;20060;-61
2022/12/20 08:41:58;;;;;;;7.13;3.80;;;9.80;99.90;;;;;;5063303;28;20064;-62
2022/12/20 08:44:24;;;;;;;8.10;4.03;;;9.80;99.90;;;;;;5061025;28;20028;-62
2022/12/20 08:46:50;;;;;;;8.15;3.85;;;9.80;99.90;;;;;;5059682;28;20037;-62
2022/12/20 08:49:16;;;;;;;8.82;4.47;;;9.80;99.90;;;;;;5055963;28;20064;-62
2022/12/20 08:51:42;;;;;;;6.85;4.00;;;9.80;99.90;;;;;;5067094;28;20039;-61
2022/12/20 08:54:07;;;;;;;10.18;4.45;;;9.90;99.90;;;;;;5056089;28;20112;-61
2022/12/20 08:56:33;;;;;;;7.95;4.43;;;9.90;99.90;;;;;;5054723;28;20036;-61
2022/12/20 08:58:59;;;;;;;9.00;4.50;;;9.90;99.90;;;;;;5053849;28;20442;-61
2022/12/20 09:01:25;;;;;;;7.15;4.60;;;9.90;99.90;;;;;;5062854;28;20510;-61
2022/12/20 09:03:52;;;;;;;8.10;4.60;;;9.90;99.90;;;;;;5059306;28;20037;-61
2022/12/20 09:06:22;;;;;;;11.00;4.78;;;9.80;99.90;;;;;;5067424;28;20060;-61
2022/12/20 09:08:48;;;;;;;9.55;4.13;;;9.90;99.90;;;;;;5058647;28;20448;-62
2022/12/20 09:11:15;;;;;;;11.85;4.78;;;9.90;99.90;;;;;;5057229;28;20169;-61
2022/12/20 09:13:43;;;;;;;8.10;4.82;;;9.90;99.90;;;;;;5066296;28;20029;-61
2022/12/20 09:16:09;;;;;;;5.93;3.70;;;9.90;99.90;;;;;;5055233;28;20082;-61
2022/12/20 09:18:35;;;;;;;7.63;4.40;;;10.00;99.90;;;;;;5062238;28;20536;-61
2022/12/20 09:21:04;;;;;;;5.43;3.80;;;9.90;99.90;;;;;;5062856;28;20043;-61
2022/12/20 09:23:31;;;;;;;7.18;4.40;;;10.00;99.90;;;;;;5056056;28;20052;-62
2022/12/20 09:26:10;;;;;;;7.85;4.03;;;9.90;99.90;;;;;;5063360;28;20081;-61
2022/12/20 09:28:36;;;;;;;6.72;4.00;;;9.90;99.90;;;;;;5064277;28;20503;-62
2022/12/20 09:31:04;;;;;;;6.57;3.72;;;9.90;99.90;;;;;;5058645;28;20044;-61
2022/12/20 09:33:32;;;;;;;7.90;3.92;;;10.00;99.90;;;;;;5064399;28;20126;-62
2022/12/20 09:35:58;;;;;;;10.57;4.13;;;10.00;99.90;;;;;;5059141;28;20033;-60
2022/12/20 09:38:25;;;;;;;7.03;4.22;;;10.00;99.90;;;;;;5062140;28;20407;-61
2022/12/20 09:40:54;;;;;;;6.75;3.88;;;10.00;99.90;;;;;;5066829;28;20044;-62
2022/12/20 09:43:20;;;;;;;10.88;3.85;;;10.00;99.90;;;;;;5062711;28;20043;-61
2022/12/20 09:45:50;;;;;;;8.63;4.63;;;10.00;99.90;;;;;;5062068;28;20068;-61
2022/12/20 09:48:23;;;;;;;8.80;4.05;;;10.00;99.90;;;;;;5062646;28;20609;-61
2022/12/20 09:51:13;;;;;;;10.27;4.15;;;10.00;99.90;;;;;;5068264;28;20032;-60
2022/12/20 09:53:59;;;;;;;6.88;4.40;;;10.00;99.90;;;;;;5064447;28;20032;-61
2022/12/20 09:56:54;;;;;;;5.90;4.07;;;10.00;99.90;;;;;;5062570;28;20634;-61
2022/12/20 09:59:20;;;;;;;6.75;3.25;;;10.00;99.90;;;;;;5063416;28;20037;-61
2022/12/20 10:01:48;;;;;;;6.35;3.95;;;10.00;99.90;;;;;;5067225;28;20442;-62
2022/12/20 10:04:22;;;;;;;10.35;4.10;;;10.00;99.90;;;;;;5066254;28;20037;-62
2022/12/20 10:07:31;;;;;;;8.25;3.55;;;10.00;99.90;;;;;;5068358;28;20181;-63
2022/12/20 10:10:07;;;;;;;8.95;4.13;;;10.00;99.90;;;;;;5063761;28;20159;-61
2022/12/20 10:12:42;;;;;;;8.50;3.63;;;10.00;99.90;;;;;;5060652;28;20036;-61
2022/12/20 10:15:21;;;;;;;5.75;3.55;;;10.00;99.90;;;;;;5064548;28;20047;-61
2022/12/20 10:18:16;;;;;;;6.50;3.55;;;10.00;99.90;;;;;;5066226;28;20124;-61
2022/12/20 10:21:14;;;;;;;5.47;3.35;;;10.10;99.90;;;;;;5066024;28;20028;-62
2022/12/20 10:23:50;;;;;;;7.88;3.50;;;10.20;99.90;;;;;;5062634;28;20123;-61
2022/12/20 10:26:15;;;;;;;7.78;3.55;;;10.20;99.90;;;;;;5061398;28;20036;-60
2022/12/20 10:28:41;;;;;;;6.82;3.60;;;10.20;99.90;;;;;;5067573;28;20037;-61
2022/12/20 10:31:12;;;;;;;8.25;4.03;;;10.20;99.90;;;;;;5061586;28;20189;-60
2022/12/20 10:33:39;;;;;;;7.65;3.75;;;10.20;99.90;;;;;;5058918;28;20024;-61
2022/12/20 10:36:25;;;;;;;9.27;3.97;;;10.20;99.90;;;;;;5065121;28;20040;-61
2022/12/20 10:38:54;;;;;;;9.50;3.78;;;10.20;99.90;;;;;;5062034;28;20177;-61
2022/12/20 10:41:26;;;;;;;7.72;3.95;;;10.30;99.90;;;;;;5068056;28;20612;-61
2022/12/20 10:44:16;;;;;;;7.13;3.70;;;10.30;99.90;;;;;;5069847;28;20047;-61
2022/12/20 10:46:49;;;;;;;7.07;3.88;;;10.30;99.90;;;;;;5061421;28;20111;-62
2022/12/20 10:49:36;;;;;;;5.22;3.58;;;10.40;99.90;;;;;;5063325;28;20471;-61
2022/12/20 10:52:11;;;;;;;5.82;3.35;;;10.50;99.90;;;;;;5066770;28;20457;-61
2022/12/20 10:54:44;;;;;;;7.97;3.72;;;10.40;99.90;;;;;;5061022;28;20394;-61
2022/12/20 10:57:13;;;;;;;;;;;10.40;99.90;;;;;;5069089;28;20107;-61
2022/12/20 10:59:42;;;;;;;7.88;4.18;;;10.50;99.90;;;;;;5061976;28;19914;-62
2022/12/20 11:02:38;;;;;;;6.93;4.18;;;10.50;99.90;;;;;;5062823;28;20036;-63
2022/12/20 11:05:20;;;;;;;8.52;3.97;;;10.50;99.90;;;;;;5041747;28;20467;-61
2022/12/20 11:07:59;;;;;;;7.53;3.95;;;10.40;99.90;;;;;;5056567;28;20284;-61
2022/12/20 11:10:27;;;;;;;8.70;4.18;;;10.40;99.90;;;;;;5060926;28;20068;-62
2022/12/20 11:12:55;;;;;;;7.90;3.70;;;10.40;99.90;;;;;;5068425;28;20047;-60
2022/12/20 11:15:27;;;;;;;7.15;3.63;;;10.40;99.90;;;;;;5065464;28;20039;-61
2022/12/20 11:17:59;;;;;;;7.75;3.60;;;10.50;99.90;;;;;;5059819;28;20454;-60
2022/12/20 11:20:31;;;;;;;8.23;3.77;;;10.60;99.90;;;;;;5056848;28;20033;-62
2022/12/20 11:23:33;;;;;;;11.85;3.90;;;10.50;99.90;;;;;;5056370;28;20315;-61
2022/12/20 11:26:34;;;;;;;8.75;3.83;;;10.50;99.90;;;;;;5062262;28;20500;-61
2022/12/20 11:29:12;;;;;;;8.65;3.95;;;10.60;99.90;;;;;;5058310;28;20091;-62
2022/12/20 11:31:37;;;;;;;5.95;4.05;;;10.50;99.90;;;;;;5063623;28;20040;-61
2022/12/20 11:34:11;;;;;;;8.50;4.15;;;10.60;99.90;;;;;;5061168;28;20161;-61
2022/12/20 11:37:01;;;;;;;7.75;3.90;;;10.50;99.90;;;;;;5065988;28;20078;-61
2022/12/20 11:39:39;;;;;;;7.05;3.70;;;10.60;99.90;;;;;;5060349;28;20037;-62
2022/12/20 11:42:11;;;;;;;6.53;3.58;;;10.60;99.90;;;;;;5062373;28;20040;-61
2022/12/20 11:45:14;;;;;;;4.68;3.28;;;10.70;99.90;;;;;;5062984;28;20044;-61
2022/12/20 11:48:15;;;;;;;6.25;3.20;;;10.80;99.90;;;;;;5051995;28;20052;-60
2022/12/20 11:51:12;;;;;;;8.07;3.92;;;10.70;99.90;;;;;;5058494;28;20477;-61
2022/12/20 11:53:44;;;;;;;5.47;3.15;;;10.70;99.90;;;;;;5041466;28;20029;-61
2022/12/20 11:56:21;;;;;;;6.78;3.40;;;10.80;99.90;;;;;;5056955;28;20526;-61
2022/12/20 11:58:51;;;;;;;7.60;3.00;;;10.80;99.90;;;;;;5059632;28;20040;-60
2022/12/20 12:01:21;;;;;;;7.30;3.58;;;10.80;99.90;;;;;;5059104;28;20119;-61
2022/12/20 12:04:26;;;;;;;6.47;3.10;;;10.80;99.90;;;;;;5063562;28;20521;-61
2022/12/20 12:07:09;;;;;;;6.75;3.10;;;10.90;99.90;;;;;;4999241;28;20064;-62
2022/12/20 12:09:54;;;;;;;5.85;3.10;;;10.90;99.90;;;;;;5064269;28;20032;-62
2022/12/20 12:12:19;;;;;;;7.25;3.35;;;11.00;99.90;;;;;;5057999;28;20024;-61
2022/12/20 12:15:03;;;;;;;6.55;3.20;;;11.00;99.90;;;;;;5066937;28;20037;-59
2022/12/20 12:17:43;;;;;;;5.00;3.28;;;11.00;99.90;;;;;;5062996;28;20108;-60
2022/12/20 12:20:32;;;;;;;7.53;3.05;;;11.00;99.90;;;;;;5057605;28;20025;-59
2022/12/20 12:23:16;;;;;;;7.28;3.20;;;11.00;99.90;;;;;;5048696;28;20395;-60
2022/12/20 12:25:41;;;;;;;4.03;2.75;;;11.00;99.90;;;;;;5061757;28;20032;-60
2022/12/20 12:28:12;;;;;;;6.93;2.80;;;11.00;99.90;;;;;;5063190;28;20097;-62
2022/12/20 12:30:43;;;;;;;7.05;3.00;;;11.00;99.90;;;;;;5064322;28;20091;-60
2022/12/20 12:33:20;;;;;;;6.22;3.00;;;11.10;99.90;;;;;;5071355;28;20068;-61
2022/12/20 12:36:31;;;;;;;9.65;3.10;;;11.10;99.90;;;;;;5060067;28;20042;-60
2022/12/20 12:39:11;;;;;;;8.32;2.88;;;11.10;99.90;;;;;;5053818;28;20031;-61
2022/12/20 12:41:43;;;;;;;6.85;3.20;;;11.10;99.90;;;;;;5058933;28;20515;-60
2022/12/20 12:44:17;;;;;;;7.07;3.15;;;11.10;99.90;;;;;;5058073;28;20131;-61
2022/12/20 12:46:44;;;;;;;6.68;2.90;;;11.00;99.90;;;;;;5062689;28;20507;-61
2022/12/20 12:49:22;;;;;;;5.78;2.63;;;11.10;99.90;;;;;;5059840;28;20670;-61
2022/12/20 12:51:58;;;;;;;5.13;3.10;;;11.00;99.90;;;;;;5059216;28;20575;-61
2022/12/20 12:54:27;;;;;;;4.75;3.15;;;11.00;99.90;;;;;;5060130;28;20040;-60
2022/12/20 12:57:01;;;;;;;7.57;3.40;;;11.00;99.90;;;;;;5048843;28;20041;-61
2022/12/20 12:59:33;;;;;;;8.45;3.70;;;11.00;99.90;;;;;;5060978;28;20782;-61
2022/12/20 13:02:02;;;;;;;6.57;3.70;;;10.90;99.90;;;;;;5063349;28;20145;-60
2022/12/20 13:04:30;;;;;;;5.85;3.55;;;10.90;99.90;;;;;;5062893;28;20047;-61
2022/12/20 13:07:23;;;;;;;7.85;3.67;;;10.90;99.90;;;;;;5059893;28;20614;-60
2022/12/20 13:09:48;;;;;;;7.70;3.65;;;10.90;99.90;;;;;;5059250;28;20036;-61
2022/12/20 13:12:36;;;;;;;10.15;3.88;;;10.90;99.90;;;;;;5055249;28;20036;-60